createdAt,value
2022-08-18T00:00:47.133Z,99.99
2022-08-18T00:01:47.360Z,99.99
2022-08-18T00:03:01.122Z,99.99
2022-08-18T00:03:55.864Z,99.99
2022-08-18T00:04:48.899Z,99.99
2022-08-18T00:05:50.700Z,99.99
2022-08-18T00:06:48.930Z,99.99
2022-08-18T00:07:50.511Z,99.99
2022-08-18T00:08:49.390Z,99.99
2022-08-18T00:09:49.575Z,99.99
2022-08-18T00:10:49.768Z,99.99
2022-08-18T00:11:50.457Z,99.99
2022-08-18T00:12:52.010Z,99.99
2022-08-18T00:13:50.179Z,99.99
2022-08-18T00:14:51.367Z,99.99
2022-08-18T00:15:51.554Z,99.99
2022-08-18T00:16:53.774Z,99.99
2022-08-18T00:17:53.381Z,99.99
2022-08-18T00:18:52.633Z,99.99
2022-08-18T00:19:52.836Z,99.99
2022-08-18T00:20:51.210Z,99.99
2022-08-18T00:21:53.536Z,99.99
2022-08-18T00:22:53.843Z,99.99
2022-08-18T00:23:52.108Z,99.99
2022-08-18T00:24:54.292Z,99.99
2022-08-18T00:25:52.681Z,99.99
2022-08-18T00:26:52.997Z,99.99
2022-08-18T00:27:57.186Z,99.99
2022-08-18T00:28:53.625Z,99.99
2022-08-18T00:29:57.780Z,99.99
2022-08-18T00:30:54.469Z,99.99
2022-08-18T00:31:58.335Z,99.99
2022-08-18T00:32:57.581Z,99.99
2022-08-18T00:33:54.988Z,99.99
2022-08-18T00:34:57.152Z,99.99
2022-08-18T00:35:57.341Z,99.99
2022-08-18T00:36:55.845Z,99.99
2022-08-18T00:37:58.011Z,99.99
2022-08-18T00:39:00.177Z,99.99
2022-08-18T00:39:58.495Z,99.99
2022-08-18T00:40:56.951Z,99.99
2022-08-18T00:41:57.296Z,99.99
2022-08-18T00:42:59.483Z,99.99
2022-08-18T00:43:59.672Z,99.99
2022-08-18T00:44:59.852Z,99.99
2022-08-18T00:45:58.493Z,99.99
2022-08-18T00:46:58.806Z,99.99
2022-08-18T00:48:01.005Z,99.99
2022-08-18T00:49:00.685Z,99.99
2022-08-18T00:50:01.363Z,99.99
2022-08-18T00:50:59.985Z,99.99
2022-08-18T00:52:00.301Z,99.99
2022-08-18T00:53:00.607Z,99.99
2022-08-18T00:54:02.799Z,99.99
2022-08-18T00:55:04.951Z,99.99
2022-08-18T00:56:01.494Z,99.99
2022-08-18T00:57:01.829Z,99.99
2022-08-18T00:58:03.117Z,99.99
2022-08-18T00:59:03.267Z,99.99
2022-08-18T01:00:04.558Z,99.99
2022-08-18T01:01:04.835Z,99.99
2022-08-18T01:02:05.939Z,99.99
2022-08-18T01:03:05.153Z,99.99
2022-08-18T01:04:05.335Z,99.99
2022-08-18T01:05:04.093Z,99.99
2022-08-18T01:06:08.233Z,99.99
2022-08-18T01:07:04.657Z,99.99
2022-08-18T01:08:07.381Z,99.99
2022-08-18T01:09:05.277Z,99.99
2022-08-18T01:10:05.535Z,99.99
2022-08-18T01:11:07.699Z,99.99
2022-08-18T01:12:44.373Z,99.99
2022-08-18T01:13:07.322Z,99.99
2022-08-18T01:14:06.573Z,99.99
2022-08-18T01:15:08.759Z,99.99
2022-08-18T01:16:09.918Z,99.99
2022-08-18T01:17:11.066Z,99.99
2022-08-18T01:18:09.294Z,99.99
2022-08-18T01:19:08.053Z,99.99
2022-08-18T01:20:10.243Z,99.99
2022-08-18T01:21:08.646Z,99.99
2022-08-18T01:22:09.035Z,99.99
2022-08-18T01:23:11.158Z,99.99
2022-08-18T01:24:09.547Z,99.99
2022-08-18T01:25:11.749Z,99.99
2022-08-18T01:26:10.134Z,99.99
2022-08-18T01:27:11.340Z,99.99
2022-08-18T01:28:10.714Z,99.99
2022-08-18T01:29:11.028Z,99.99
2022-08-18T01:30:13.220Z,99.99
2022-08-18T01:31:11.617Z,99.99
2022-08-18T01:32:13.500Z,99.99
2022-08-18T01:33:12.213Z,99.99
2022-08-18T01:34:14.413Z,99.99
2022-08-18T01:35:14.588Z,99.99
2022-08-18T01:36:14.779Z,99.99
2022-08-18T01:37:16.260Z,99.99
2022-08-18T01:38:15.657Z,99.99
2022-08-18T01:39:13.940Z,99.99
2022-08-18T01:41:23.005Z,99.99
2022-08-18T01:41:27.027Z,99.99
2022-08-18T01:42:18.868Z,99.99
2022-08-18T01:43:15.964Z,99.99
2022-08-18T01:44:17.338Z,99.99
2022-08-18T01:45:17.529Z,99.99
2022-08-18T01:46:16.042Z,99.99
2022-08-18T01:47:17.358Z,99.99
2022-08-18T01:48:18.600Z,99.99
2022-08-18T01:49:16.983Z,99.99
2022-08-18T01:50:19.173Z,99.99
2022-08-18T01:51:17.567Z,99.99
2022-08-18T01:52:20.883Z,99.99
2022-08-18T01:53:18.156Z,99.99
2022-08-18T01:54:20.346Z,99.99
2022-08-18T01:55:18.734Z,99.99
2022-08-18T01:56:20.916Z,99.99
2022-08-18T01:57:20.227Z,99.99
2022-08-18T01:58:21.574Z,99.99
2022-08-18T01:59:19.841Z,99.99
2022-08-18T02:00:22.063Z,99.99
2022-08-18T02:01:22.447Z,99.99
2022-08-18T02:02:22.735Z,99.99
2022-08-18T02:03:20.967Z,99.99
2022-08-18T02:04:34.921Z,99.99
2022-08-18T02:05:22.612Z,99.99
2022-08-18T02:06:32.229Z,99.99
2022-08-18T02:07:34.281Z,99.99
2022-08-18T02:08:23.411Z,99.99
2022-08-18T02:09:25.601Z,99.99
2022-08-18T02:10:24.768Z,99.99
2022-08-18T02:11:24.939Z,99.99
2022-08-18T02:12:25.549Z,99.99
2022-08-18T02:13:25.788Z,99.99
2022-08-18T02:14:27.570Z,99.99
2022-08-18T02:15:24.328Z,99.99
2022-08-18T02:16:26.527Z,99.99
2022-08-18T02:17:28.629Z,99.99
2022-08-18T02:18:45.274Z,99.99
2022-08-18T02:19:26.418Z,99.99
2022-08-18T02:20:25.691Z,99.99
2022-08-18T02:21:27.864Z,99.99
2022-08-18T02:22:27.043Z,99.99
2022-08-18T02:23:30.400Z,99.99
2022-08-18T02:24:26.829Z,99.99
2022-08-18T02:25:29.018Z,99.99
2022-08-18T02:26:27.410Z,99.99
2022-08-18T02:27:28.612Z,99.99
2022-08-18T02:28:30.669Z,99.99
2022-08-18T02:29:30.183Z,99.99
2022-08-18T02:30:28.601Z,99.99
2022-08-18T02:31:28.913Z,99.99
2022-08-18T02:32:30.190Z,99.99
2022-08-18T02:33:29.562Z,99.99
2022-08-18T02:34:31.743Z,99.99
2022-08-18T02:35:30.153Z,99.99
2022-08-18T02:36:30.487Z,99.99
2022-08-18T02:37:33.804Z,99.99
2022-08-18T02:38:31.081Z,99.99
2022-08-18T02:39:34.785Z,99.99
2022-08-18T02:40:34.935Z,99.99
2022-08-18T02:41:31.855Z,99.99
2022-08-18T02:42:36.035Z,99.99
2022-08-18T02:43:37.746Z,99.99
2022-08-18T02:44:32.820Z,99.99
2022-08-18T02:45:36.937Z,99.99
2022-08-18T02:46:33.358Z,99.99
2022-08-18T02:47:36.681Z,99.99
2022-08-18T02:48:35.750Z,99.99
2022-08-18T02:49:34.269Z,99.99
2022-08-18T02:50:34.642Z,99.99
2022-08-18T02:51:36.785Z,99.99
2022-08-18T02:52:38.437Z,99.99
2022-08-18T02:53:37.182Z,99.99
2022-08-18T02:54:35.682Z,99.99
2022-08-18T02:55:36.930Z,99.99
2022-08-18T02:56:41.133Z,99.99
2022-08-18T02:57:39.559Z,99.99
2022-08-18T02:58:37.667Z,99.99
2022-08-18T02:59:39.269Z,99.99
2022-08-18T03:00:39.325Z,99.99
2022-08-18T03:01:37.841Z,99.99
2022-08-18T03:02:41.130Z,99.99
2022-08-18T03:03:38.451Z,99.99
2022-08-18T03:04:40.626Z,99.99
2022-08-18T03:05:39.020Z,99.99
2022-08-18T03:06:39.421Z,99.99
2022-08-18T03:07:40.433Z,99.99
2022-08-18T03:08:39.841Z,99.99
2022-08-18T03:09:41.019Z,99.99
2022-08-18T03:10:42.200Z,99.99
2022-08-18T03:11:40.732Z,99.99
2022-08-18T03:12:44.003Z,99.99
2022-08-18T03:13:41.292Z,99.99
2022-08-18T03:14:41.603Z,99.99
2022-08-18T03:15:43.800Z,99.99
2022-08-18T03:16:53.259Z,99.99
2022-08-18T03:17:45.085Z,99.99
2022-08-18T03:18:42.850Z,99.99
2022-08-18T03:19:43.173Z,99.99
2022-08-18T03:20:45.358Z,99.99
2022-08-18T03:21:43.666Z,99.99
2022-08-18T03:22:47.846Z,99.99
2022-08-18T03:23:45.059Z,99.99
2022-08-18T03:24:45.543Z,99.99
2022-08-18T03:25:46.739Z,99.99
2022-08-18T03:26:46.944Z,99.99
2022-08-18T03:27:48.489Z,99.99
2022-08-18T03:28:47.287Z,99.99
2022-08-18T03:29:47.970Z,99.99
2022-08-18T03:30:48.163Z,99.99
2022-08-18T03:31:48.379Z,99.99
2022-08-18T03:32:50.037Z,99.99
2022-08-18T03:33:49.302Z,99.99
2022-08-18T03:34:49.496Z,99.99
2022-08-18T03:35:49.682Z,99.99
2022-08-18T03:36:49.884Z,99.99
2022-08-18T03:37:49.573Z,99.99
2022-08-18T03:38:50.923Z,99.99
2022-08-18T03:39:51.065Z,99.99
2022-08-18T03:40:49.314Z,99.99
2022-08-18T03:41:59.601Z,99.99
2022-08-18T03:42:54.630Z,99.99
2022-08-18T03:43:51.960Z,99.99
2022-08-18T03:44:52.032Z,99.99
2022-08-18T03:45:52.714Z,99.99
2022-08-18T03:46:52.911Z,99.99
2022-08-18T03:47:54.469Z,99.99
2022-08-18T03:48:53.308Z,99.99
2022-08-18T03:49:54.007Z,99.99
2022-08-18T03:50:56.150Z,99.99
2022-08-18T03:51:54.398Z,99.99
2022-08-18T03:52:56.511Z,99.99
2022-08-18T03:53:55.254Z,99.99
2022-08-18T03:54:55.435Z,99.99
2022-08-18T03:55:55.637Z,99.99
2022-08-18T03:56:55.861Z,99.99
2022-08-18T03:57:56.511Z,99.99
2022-08-18T03:58:56.699Z,99.99
2022-08-18T03:59:56.859Z,99.99
2022-08-18T04:00:57.102Z,99.99
2022-08-18T04:01:57.887Z,99.99
2022-08-18T04:02:58.036Z,99.99
2022-08-18T04:03:58.252Z,99.99
2022-08-18T04:04:58.441Z,99.99
2022-08-18T04:05:57.096Z,99.99
2022-08-18T04:06:59.282Z,99.99
2022-08-18T04:07:59.488Z,99.99
2022-08-18T04:08:58.009Z,99.99
2022-08-18T04:10:00.239Z,99.99
2022-08-18T04:10:58.626Z,99.99
2022-08-18T04:12:00.792Z,99.99
2022-08-18T04:12:59.086Z,99.99
2022-08-18T04:14:02.455Z,99.99
2022-08-18T04:15:01.454Z,99.99
2022-08-18T04:16:01.658Z,99.99
2022-08-18T04:17:01.819Z,99.99
2022-08-18T04:18:04.173Z,99.99
2022-08-18T04:19:02.726Z,99.99
2022-08-18T04:20:02.934Z,99.99
2022-08-18T04:21:01.591Z,99.99
2022-08-18T04:22:03.785Z,99.99
2022-08-18T04:23:03.975Z,99.99
2022-08-18T04:24:02.522Z,99.99
2022-08-18T04:25:04.693Z,99.99
2022-08-18T04:26:03.122Z,99.99
2022-08-18T04:27:03.347Z,99.99
2022-08-18T04:28:05.575Z,99.99
2022-08-18T04:29:03.878Z,99.99
2022-08-18T04:30:08.019Z,99.99
2022-08-18T04:31:04.349Z,99.99
2022-08-18T04:32:08.551Z,99.99
2022-08-18T04:33:08.202Z,99.99
2022-08-18T04:34:06.979Z,99.99
2022-08-18T04:35:11.153Z,99.99
2022-08-18T04:36:06.660Z,99.99
2022-08-18T04:37:06.919Z,99.99
2022-08-18T04:38:08.140Z,99.99
2022-08-18T04:39:06.445Z,99.99
2022-08-18T04:40:07.202Z,99.99
2022-08-18T04:41:06.996Z,99.99
2022-08-18T04:42:07.262Z,99.99
2022-08-18T04:43:09.417Z,99.99
2022-08-18T04:44:07.719Z,99.99
2022-08-18T04:45:07.946Z,99.99
2022-08-18T04:46:10.101Z,99.99
2022-08-18T04:47:08.402Z,99.99
2022-08-18T04:48:10.589Z,99.99
2022-08-18T04:49:08.890Z,99.99
2022-08-18T04:50:09.119Z,99.99
2022-08-18T04:51:10.913Z,99.99
2022-08-18T04:52:27.017Z,99.99
2022-08-18T04:53:11.050Z,99.99
2022-08-18T04:54:11.168Z,99.99
2022-08-18T04:55:10.574Z,99.99
2022-08-18T04:56:11.755Z,99.99
2022-08-18T04:57:14.985Z,99.99
2022-08-18T04:58:13.185Z,99.99
2022-08-18T04:59:13.359Z,99.99
2022-08-18T05:00:11.904Z,99.99
2022-08-18T05:01:12.163Z,99.99
2022-08-18T05:02:15.531Z,99.99
2022-08-18T05:03:15.168Z,99.99
2022-08-18T05:04:14.457Z,99.99
2022-08-18T05:05:15.204Z,99.99
2022-08-18T05:06:13.507Z,99.99
2022-08-18T05:07:13.721Z,99.99
2022-08-18T05:08:13.954Z,99.99
2022-08-18T05:09:16.504Z,99.99
2022-08-18T05:10:17.411Z,99.99
2022-08-18T05:11:14.854Z,99.99
2022-08-18T05:12:15.101Z,99.99
2022-08-18T05:13:15.319Z,99.99
2022-08-18T05:14:16.422Z,99.99
2022-08-18T05:15:17.844Z,99.99
2022-08-18T05:16:25.388Z,99.99
2022-08-18T05:17:17.345Z,99.99
2022-08-18T05:18:18.517Z,99.99
2022-08-18T05:19:19.309Z,99.99
2022-08-18T05:20:19.124Z,99.99
2022-08-18T05:21:19.310Z,99.99
2022-08-18T05:22:19.509Z,99.99
2022-08-18T05:23:21.153Z,99.99
2022-08-18T05:24:22.291Z,99.99
2022-08-18T05:25:20.508Z,99.99
2022-08-18T05:26:20.700Z,99.99
2022-08-18T05:27:20.377Z,99.99
2022-08-18T05:28:20.349Z,99.99
2022-08-18T05:29:21.893Z,99.99
2022-08-18T05:30:21.733Z,99.99
2022-08-18T05:31:20.417Z,99.99
2022-08-18T05:32:30.605Z,99.99
2022-08-18T05:33:25.783Z,99.99
2022-08-18T05:34:21.925Z,99.99
2022-08-18T05:35:21.459Z,99.99
2022-08-18T05:36:21.817Z,99.99
2022-08-18T05:37:22.150Z,99.99
2022-08-18T05:38:22.392Z,99.99
2022-08-18T05:39:26.757Z,99.99
2022-08-18T05:40:22.916Z,99.99
2022-08-18T05:41:23.127Z,99.99
2022-08-18T05:42:23.485Z,99.99
2022-08-18T05:43:23.701Z,99.99
2022-08-18T05:44:27.120Z,99.99
2022-08-18T05:45:24.308Z,99.99
2022-08-18T05:46:24.541Z,99.99
2022-08-18T05:47:24.764Z,99.99
2022-08-18T05:48:24.997Z,99.99
2022-08-18T05:49:28.080Z,99.99
2022-08-18T05:50:27.298Z,99.99
2022-08-18T05:51:27.486Z,99.99
2022-08-18T05:52:27.661Z,99.99
2022-08-18T05:53:28.318Z,99.99
2022-08-18T05:54:28.750Z,99.99
2022-08-18T05:55:28.945Z,99.99
2022-08-18T05:56:29.138Z,99.99
2022-08-18T05:57:30.316Z,99.58
2022-08-18T05:58:33.234Z,98.83
2022-08-18T05:59:29.768Z,98.33
2022-08-18T06:00:30.105Z,96.78
2022-08-18T06:01:30.775Z,96.48
2022-08-18T06:02:31.056Z,96.04
2022-08-18T06:03:31.200Z,95.14
2022-08-18T06:04:33.842Z,94.73
2022-08-18T06:05:31.992Z,94.69
2022-08-18T06:06:32.187Z,94.84
2022-08-18T06:07:33.669Z,93.40
2022-08-18T06:08:32.551Z,92.80
2022-08-18T06:09:32.593Z,93.20
2022-08-18T06:10:33.329Z,92.30
2022-08-18T06:11:33.500Z,92.59
2022-08-18T06:12:33.697Z,94.12
2022-08-18T06:13:32.228Z,95.82
2022-08-18T06:14:33.443Z,97.12
2022-08-18T06:15:34.782Z,97.82
2022-08-18T06:16:34.106Z,98.27
2022-08-18T06:17:35.280Z,98.87
2022-08-18T06:18:33.697Z,99.07
2022-08-18T06:19:34.753Z,99.22
2022-08-18T06:20:36.147Z,99.13
2022-08-18T06:21:39.095Z,98.52
2022-08-18T06:22:36.494Z,98.52
2022-08-18T06:23:36.057Z,99.07
2022-08-18T06:24:36.330Z,99.17
2022-08-18T06:25:37.591Z,99.48
2022-08-18T06:26:35.889Z,99.57
2022-08-18T06:27:38.071Z,99.68
2022-08-18T06:28:38.365Z,99.68
2022-08-18T06:29:39.687Z,99.68
2022-08-18T06:30:37.012Z,99.77
2022-08-18T06:31:39.198Z,99.57
2022-08-18T06:32:40.375Z,99.63
2022-08-18T06:33:37.852Z,98.38
2022-08-18T06:34:41.991Z,97.38
2022-08-18T06:35:40.235Z,96.84
2022-08-18T06:36:40.414Z,95.89
2022-08-18T06:37:38.985Z,94.74
2022-08-18T06:38:39.231Z,94.15
2022-08-18T06:39:42.949Z,93.50
2022-08-18T06:40:39.788Z,93.30
2022-08-18T06:41:43.923Z,92.26
2022-08-18T06:42:40.703Z,91.26
2022-08-18T06:43:40.592Z,91.36
2022-08-18T06:44:42.313Z,91.42
2022-08-18T06:45:41.133Z,90.58
2022-08-18T06:46:43.314Z,90.03
2022-08-18T06:47:41.632Z,89.64
2022-08-18T06:48:41.874Z,89.28
2022-08-18T06:49:43.588Z,90.32
2022-08-18T06:50:44.301Z,91.26
2022-08-18T06:51:44.566Z,90.96
2022-08-18T06:52:42.951Z,91.20
2022-08-18T06:53:45.133Z,92.40
2022-08-18T06:54:47.842Z,92.80
2022-08-18T06:55:45.636Z,91.80
2022-08-18T06:56:44.092Z,92.75
2022-08-18T06:57:44.340Z,93.29
2022-08-18T06:58:44.577Z,93.95
2022-08-18T06:59:48.807Z,92.66
2022-08-18T07:00:49.101Z,91.67
2022-08-18T07:01:47.237Z,90.48
2022-08-18T07:02:46.655Z,89.06
2022-08-18T07:03:45.967Z,85.74
2022-08-18T07:04:50.119Z,84.58
2022-08-18T07:05:48.369Z,85.46
2022-08-18T07:06:46.830Z,86.56
2022-08-18T07:07:47.067Z,86.46
2022-08-18T07:08:47.306Z,85.92
2022-08-18T07:09:51.700Z,85.60
2022-08-18T07:10:47.789Z,87.35
2022-08-18T07:11:50.247Z,87.17
2022-08-18T07:12:50.155Z,85.34
2022-08-18T07:13:58.578Z,84.36
2022-08-18T07:14:50.725Z,82.24
2022-08-18T07:15:49.635Z,82.14
2022-08-18T07:17:04.869Z,81.18
2022-08-18T07:17:52.772Z,82.22
2022-08-18T07:18:50.027Z,83.25
2022-08-18T07:19:51.723Z,84.01
2022-08-18T07:20:50.525Z,81.92
2022-08-18T07:21:52.719Z,82.81
2022-08-18T07:22:51.224Z,82.71
2022-08-18T07:24:07.855Z,82.81
2022-08-18T07:24:53.347Z,82.57
2022-08-18T07:25:51.805Z,82.32
2022-08-18T07:26:52.056Z,83.65
2022-08-18T07:27:54.360Z,84.31
2022-08-18T07:28:54.438Z,82.54
2022-08-18T07:29:54.587Z,82.04
2022-08-18T07:31:15.505Z,80.02
2022-08-18T07:31:55.291Z,79.32
2022-08-18T07:32:55.504Z,80.21
2022-08-18T07:33:55.717Z,80.51
2022-08-18T07:34:54.280Z,81.27
2022-08-18T07:35:54.527Z,80.05
2022-08-18T07:36:54.775Z,81.29
2022-08-18T07:37:56.954Z,79.69
2022-08-18T07:38:57.131Z,80.61
2022-08-18T07:39:57.366Z,78.09
2022-08-18T07:40:55.889Z,77.89
2022-08-18T07:41:56.139Z,77.46
2022-08-18T07:43:01.813Z,75.81
2022-08-18T07:43:59.557Z,77.66
2022-08-18T07:44:58.751Z,77.32
2022-08-18T07:45:57.190Z,75.63
2022-08-18T07:46:57.880Z,75.57
2022-08-18T07:47:57.678Z,76.46
2022-08-18T07:48:59.868Z,77.80
2022-08-18T07:50:22.952Z,76.97
2022-08-18T07:51:01.457Z,75.93
2022-08-18T07:51:59.714Z,77.29
2022-08-18T07:52:59.002Z,76.70
2022-08-18T07:53:59.235Z,76.70
2022-08-18T07:55:01.416Z,76.70
2022-08-18T07:55:59.731Z,77.29
2022-08-18T07:57:01.889Z,76.21
2022-08-18T07:58:02.092Z,76.37
2022-08-18T07:59:02.276Z,76.14
2022-08-18T08:00:02.461Z,75.99
2022-08-18T08:01:03.147Z,74.11
2022-08-18T08:02:03.446Z,75.04
2022-08-18T08:03:03.514Z,76.57
2022-08-18T08:04:03.706Z,76.10
2022-08-18T08:05:03.887Z,72.39
2022-08-18T08:06:04.575Z,73.45
2022-08-18T08:07:31.559Z,72.06
2022-08-18T08:08:04.222Z,72.36
2022-08-18T08:09:05.441Z,72.26
2022-08-18T08:10:05.569Z,72.52
2022-08-18T08:11:04.135Z,71.73
2022-08-18T08:12:04.371Z,72.86
2022-08-18T08:13:09.291Z,73.46
2022-08-18T08:14:09.781Z,77.59
2022-08-18T08:15:05.128Z,76.82
2022-08-18T08:16:05.380Z,73.78
2022-08-18T08:17:05.617Z,73.94
2022-08-18T08:18:05.863Z,72.06
2022-08-18T08:19:12.096Z,72.20
2022-08-18T08:20:09.310Z,72.53
2022-08-18T08:21:08.498Z,74.38
2022-08-18T08:22:06.931Z,77.51
2022-08-18T08:23:07.175Z,78.70
2022-08-18T08:24:09.397Z,77.97
2022-08-18T08:25:28.353Z,78.60
2022-08-18T08:26:08.953Z,78.94
2022-08-18T08:27:08.240Z,79.77
2022-08-18T08:28:10.433Z,81.46
2022-08-18T08:29:11.785Z,78.80
2022-08-18T08:30:10.869Z,79.12
2022-08-18T08:31:35.595Z,76.14
2022-08-18T08:32:10.626Z,75.63
2022-08-18T08:33:11.817Z,72.95
2022-08-18T08:34:13.099Z,69.59
2022-08-18T08:35:47.402Z,73.32
2022-08-18T08:36:11.803Z,71.60
2022-08-18T08:37:12.984Z,73.55
2022-08-18T08:38:38.645Z,73.63
2022-08-18T08:39:15.688Z,73.29
2022-08-18T08:40:12.070Z,69.29
2022-08-18T08:41:12.277Z,68.99
2022-08-18T08:42:29.056Z,72.46
2022-08-18T08:43:13.809Z,71.60
2022-08-18T08:44:13.922Z,71.54
2022-08-18T08:45:15.326Z,71.97
2022-08-18T08:46:13.641Z,73.43
2022-08-18T08:47:13.888Z,75.92
2022-08-18T08:48:15.132Z,75.95
2022-08-18T08:49:15.241Z,76.25
2022-08-18T08:50:16.650Z,76.25
2022-08-18T08:51:14.966Z,76.25
2022-08-18T08:52:18.796Z,77.05
2022-08-18T08:53:15.542Z,77.98
2022-08-18T08:54:17.268Z,77.98
2022-08-18T08:55:17.995Z,77.48
2022-08-18T08:56:16.313Z,77.82
2022-08-18T08:57:16.557Z,77.62
2022-08-18T08:58:18.746Z,77.12
2022-08-18T08:59:17.857Z,77.48
2022-08-18T09:00:17.418Z,76.89
2022-08-18T09:01:17.699Z,78.08
2022-08-18T09:02:37.944Z,77.15
2022-08-18T09:03:19.159Z,77.70
2022-08-18T09:04:21.474Z,78.70
2022-08-18T09:05:20.320Z,76.81
2022-08-18T09:06:20.010Z,76.02
2022-08-18T09:07:19.302Z,74.76
2022-08-18T09:08:21.483Z,74.59
2022-08-18T09:09:21.282Z,75.48
2022-08-18T09:10:20.090Z,74.06
2022-08-18T09:11:20.328Z,74.02
2022-08-18T09:12:24.042Z,73.66
2022-08-18T09:13:28.435Z,75.12
2022-08-18T09:14:22.149Z,75.16
2022-08-18T09:15:21.477Z,75.99
2022-08-18T09:16:21.726Z,77.32
2022-08-18T09:17:33.836Z,77.22
2022-08-18T09:18:25.272Z,77.68
2022-08-18T09:19:22.633Z,76.53
2022-08-18T09:20:23.779Z,77.42
2022-08-18T09:21:25.132Z,77.98
2022-08-18T09:22:26.146Z,76.49
2022-08-18T09:23:23.720Z,76.03
2022-08-18T09:24:25.915Z,76.79
2022-08-18T09:25:24.235Z,76.09
2022-08-18T09:26:26.412Z,75.85
2022-08-18T09:27:25.668Z,76.95
2022-08-18T09:28:24.984Z,76.61
2022-08-18T09:29:27.165Z,76.02
2022-08-18T09:30:25.483Z,76.12
2022-08-18T09:31:27.667Z,78.06
2022-08-18T09:32:28.770Z,75.59
2022-08-18T09:33:26.367Z,75.74
2022-08-18T09:34:26.614Z,74.29
2022-08-18T09:35:28.808Z,74.99
2022-08-18T09:36:27.197Z,74.82
2022-08-18T09:37:28.382Z,77.91
2022-08-18T09:38:27.697Z,75.12
2022-08-18T09:39:28.030Z,75.48
2022-08-18T09:40:51.444Z,74.39
2022-08-18T09:41:31.518Z,75.52
2022-08-18T09:42:30.131Z,75.02
2022-08-18T09:43:30.910Z,76.18
2022-08-18T09:44:29.350Z,76.34
2022-08-18T09:45:33.024Z,75.35
2022-08-18T09:46:29.950Z,75.38
2022-08-18T09:47:30.476Z,75.59
2022-08-18T09:48:30.602Z,75.88
2022-08-18T09:49:32.711Z,74.39
2022-08-18T09:50:35.243Z,76.74
2022-08-18T09:51:33.122Z,75.21
2022-08-18T09:52:33.312Z,75.81
2022-08-18T09:53:33.989Z,73.86
2022-08-18T09:54:34.211Z,74.76
2022-08-18T09:55:35.525Z,74.55
2022-08-18T09:56:34.605Z,76.74
2022-08-18T09:57:42.373Z,75.01
2022-08-18T09:58:36.472Z,75.31
2022-08-18T09:59:35.657Z,76.01
2022-08-18T10:00:37.097Z,74.88
2022-08-18T10:01:36.288Z,74.62
2022-08-18T10:02:36.761Z,74.22
2022-08-18T10:03:34.933Z,74.22
2022-08-18T10:04:37.127Z,74.52
2022-08-18T10:05:36.355Z,73.76
2022-08-18T10:06:37.720Z,75.55
2022-08-18T10:07:43.344Z,74.59
2022-08-18T10:08:37.300Z,75.98
2022-08-18T10:09:39.446Z,76.57
2022-08-18T10:11:01.608Z,76.10
2022-08-18T10:11:39.840Z,74.55
2022-08-18T10:12:39.013Z,75.38
2022-08-18T10:13:39.241Z,75.74
2022-08-18T10:14:39.879Z,75.21
2022-08-18T10:15:40.004Z,74.78
2022-08-18T10:17:13.288Z,74.41
2022-08-18T10:17:39.845Z,72.20
2022-08-18T10:18:40.925Z,72.30
2022-08-18T10:19:41.109Z,70.97
2022-08-18T10:20:42.602Z,70.74
2022-08-18T10:21:41.519Z,69.95
2022-08-18T10:22:42.212Z,71.17
2022-08-18T10:23:47.977Z,72.27
2022-08-18T10:24:41.771Z,72.83
2022-08-18T10:25:45.015Z,72.23
2022-08-18T10:26:54.555Z,71.83
2022-08-18T10:27:42.695Z,71.83
2022-08-18T10:28:43.884Z,72.39
2022-08-18T10:29:42.262Z,71.11
2022-08-18T10:30:57.122Z,72.30
2022-08-18T10:31:45.841Z,72.09
2022-08-18T10:32:44.463Z,73.22
2022-08-18T10:33:44.384Z,73.85
2022-08-18T10:34:51.632Z,72.96
2022-08-18T10:35:45.768Z,73.22
2022-08-18T10:36:46.114Z,73.22
2022-08-18T10:37:46.291Z,74.55
2022-08-18T10:38:46.215Z,73.91
2022-08-18T10:39:45.233Z,74.71
2022-08-18T10:40:49.359Z,74.80
2022-08-18T10:41:47.580Z,74.87
2022-08-18T10:42:47.750Z,75.07
2022-08-18T10:43:58.086Z,74.51
2022-08-18T10:44:47.616Z,74.15
2022-08-18T10:46:23.116Z,74.48
2022-08-18T10:46:50.051Z,74.72
2022-08-18T10:47:47.505Z,75.41
2022-08-18T10:48:49.692Z,76.80
2022-08-18T10:49:48.012Z,75.01
2022-08-18T10:50:51.251Z,75.81
2022-08-18T10:52:00.069Z,74.82
2022-08-18T10:52:54.499Z,75.08
2022-08-18T10:53:50.433Z,74.08
2022-08-18T10:54:51.881Z,75.61
2022-08-18T10:55:51.598Z,75.41
2022-08-18T10:56:49.986Z,74.84
2022-08-18T10:57:52.146Z,74.25
2022-08-18T10:58:50.458Z,74.84
2022-08-18T10:59:54.446Z,74.38
2022-08-18T11:00:51.814Z,73.99
2022-08-18T11:01:51.190Z,74.78
2022-08-18T11:03:02.008Z,74.62
2022-08-18T11:04:59.333Z,75.87
2022-08-18T11:05:54.148Z,75.34
2022-08-18T11:06:54.497Z,74.61
2022-08-18T11:07:56.464Z,72.43
2022-08-18T11:08:57.802Z,72.79
2022-08-18T11:10:04.598Z,72.33
2022-08-18T11:11:32.834Z,74.84
2022-08-18T11:11:59.570Z,74.29
2022-08-18T11:12:56.667Z,74.98
2022-08-18T11:13:57.884Z,75.21
2022-08-18T11:14:54.920Z,75.81
2022-08-18T11:15:58.073Z,75.27
2022-08-18T11:16:57.272Z,75.08
2022-08-18T11:17:56.581Z,74.12
2022-08-18T11:18:57.954Z,76.21
2022-08-18T11:19:56.314Z,75.78
2022-08-18T11:20:57.575Z,75.87
2022-08-18T11:21:58.814Z,75.54
2022-08-18T11:22:57.251Z,74.55
2022-08-18T11:23:59.383Z,75.63
2022-08-18T11:24:57.693Z,75.24
2022-08-18T11:26:01.876Z,74.29
2022-08-18T11:26:58.556Z,74.38
2022-08-18T11:28:00.432Z,73.89
2022-08-18T11:28:58.715Z,74.38
2022-08-18T11:29:59.796Z,75.48
2022-08-18T11:31:00.698Z,74.68
2022-08-18T11:32:02.065Z,74.05
2022-08-18T11:33:02.928Z,75.34
2022-08-18T11:34:01.783Z,74.35
2022-08-18T11:35:00.346Z,74.98
2022-08-18T11:36:02.100Z,74.48
2022-08-18T11:37:00.915Z,74.78
2022-08-18T11:38:03.105Z,74.88
2022-08-18T11:39:03.282Z,74.48
2022-08-18T11:40:01.804Z,74.48
2022-08-18T11:41:10.593Z,74.55
2022-08-18T11:42:04.166Z,74.29
2022-08-18T11:43:04.310Z,75.57
2022-08-18T11:44:02.748Z,75.67
2022-08-18T11:45:02.998Z,75.38
2022-08-18T11:46:07.173Z,76.27
2022-08-18T11:47:03.530Z,75.18
2022-08-18T11:48:05.699Z,74.68
2022-08-18T11:49:04.879Z,74.58
2022-08-18T11:50:04.494Z,74.78
2022-08-18T11:51:08.446Z,76.14
2022-08-18T11:52:05.943Z,75.04
2022-08-18T11:53:07.108Z,73.59
2022-08-18T11:54:06.353Z,73.99
2022-08-18T11:55:15.258Z,74.58
2022-08-18T11:56:13.253Z,75.12
2022-08-18T11:59:09.409Z,74.95
2022-08-18T12:00:09.122Z,74.88
2022-08-18T12:01:11.400Z,75.57
2022-08-18T12:02:09.519Z,75.67
2022-08-18T12:03:07.957Z,75.21
2022-08-18T12:04:10.166Z,76.70
2022-08-18T12:05:10.761Z,76.86
2022-08-18T12:06:09.639Z,76.97
2022-08-18T12:07:09.915Z,76.07
2022-08-18T12:08:11.367Z,76.17
2022-08-18T12:09:16.400Z,76.17
2022-08-18T12:10:16.788Z,76.17
2022-08-18T12:11:27.304Z,76.67
2022-08-18T12:12:12.383Z,76.76
2022-08-18T12:13:12.574Z,76.61
2022-08-18T12:14:30.104Z,76.31
2022-08-18T12:15:17.651Z,76.74
2022-08-18T12:16:16.543Z,77.73
2022-08-18T12:17:13.790Z,77.73
2022-08-18T12:18:18.817Z,77.04
2022-08-18T12:19:15.755Z,77.53
2022-08-18T12:20:14.334Z,77.04
2022-08-18T12:21:16.505Z,77.23
2022-08-18T12:22:15.292Z,76.93
2022-08-18T12:23:15.428Z,77.97
2022-08-18T12:24:15.614Z,77.17
2022-08-18T12:25:15.840Z,77.73
2022-08-18T12:26:18.763Z,75.55
2022-08-18T12:28:16.834Z,76.40
2022-08-18T12:29:17.021Z,75.71
2022-08-18T12:31:18.644Z,76.33
2022-08-18T12:32:56.092Z,77.66
2022-08-18T12:33:17.299Z,77.66
2022-08-18T12:34:17.995Z,78.05
2022-08-18T12:35:21.742Z,78.95
2022-08-18T12:36:17.135Z,78.38
2022-08-18T12:37:57.720Z,77.58
2022-08-18T12:38:18.645Z,76.89
2022-08-18T12:39:17.940Z,77.82
2022-08-18T12:40:20.297Z,78.22
2022-08-18T12:41:23.414Z,77.92
2022-08-18T12:42:19.820Z,78.11
2022-08-18T12:43:21.017Z,77.52
2022-08-18T12:44:21.211Z,78.05
2022-08-18T12:45:21.398Z,78.95
2022-08-18T12:46:21.924Z,78.02
2022-08-18T12:47:20.221Z,78.45
2022-08-18T12:48:22.515Z,77.80
2022-08-18T12:49:20.686Z,78.33
2022-08-18T12:50:31.336Z,80.41
2022-08-18T12:51:24.990Z,78.92
2022-08-18T12:52:22.457Z,79.91
2022-08-18T12:54:25.138Z,79.52
2022-08-18T12:55:22.437Z,78.99
2022-08-18T12:56:23.522Z,79.38
2022-08-18T12:57:51.762Z,80.04
2022-08-18T12:58:24.988Z,80.04
2022-08-18T12:59:24.294Z,78.97
2022-08-18T13:00:28.197Z,80.47
2022-08-18T13:01:24.965Z,82.14
2022-08-18T13:02:24.206Z,83.17